Portsmouth, New Hampshire
Current Conditions -  °F | °C
As of 3:58 AM on Monday 20 Oct 2014 (Local Time) from KPSM Reporting Station
Broken Clouds Broken Clouds  
Wind Chill: 31°   Ceiling: 25000
Heat Index: 38°   Visibility: 10mi
Dew Point: 26°   Wind: 12mph
Humidity: 60%   Direction: 270°W
Pressure: 29.95"   Gusts: NA
Location:  43.07°N, 70.77°W
Report Text: KPSM 200758Z 27010KT 10SM BKN250 04/M03 A2995 RMK AO2A SLP146 T00361035
Loading
Personal Weather Stations






























Interactive Weather Map
Tropical Storm Tracking
New forecast layout! Learn more

10-Day Weather Forecast

Advertisements
Track Severe Weather on mobile